To NAV CANADA Home Page Login to a new session Search on AWWS site Feedback and Comments Disclaimer Vers la page française équivalente Tips FAQ What's new on the site To the Forecasts and Observations / NOTAM section To "File a Flight Plan" website Publications and other links Update of the User's profile FIC Telephone Numbers My Weather Data Folder Route Weather Data Regional Weather Data Local Weather Data To the Forecasts and Observations / NOTAM section
Request Generated 04/27/2015 at 18:31:58 UTC . Weather information available at that time is displayed.

METAR/TAF

ST. ANTHONY/NL    (show WxCam)

SPECI CYAY 271825Z AUTO 02011KT 1 3/4SM -RA -UP BR OVC003 02/02 A2990
RMK SLP128=
SPECI CYAY 271821Z AUTO 03012KT 1 3/4SM -UP BR OVC003 02/02 A2990 RMK
SLP128=
SPECI CYAY 271817Z AUTO 03013KT 2 1/2SM -UP BR OVC003 02/02 A2990 RMK
SLP128=
SPECI CYAY 271816Z AUTO 03013KT 2 1/2SM -RA -UP BR OVC003 02/02 A2990
RMK SLP127=
SPECI CYAY 271811Z AUTO 03014G19KT 3SM -RA -UP BR OVC003 02/02 A2990
RMK SLP128=
METAR CYAY 271800Z AUTO 04014KT 3SM -RA BR OVC003 02/02 A2990 RMK
SLP127=
SPECI CYAY 271757Z AUTO 04013KT 3SM -RA BR OVC003 02/02 A2990 RMK
SLP127=
SPECI CYAY 271704Z AUTO 06012KT 2 1/2SM -RA BR BKN003 OVC007 02/02
A2990 RMK VIS VRB 1 3/4-3 SLP126=
METAR CYAY 271700Z AUTO 06011G16KT 4SM -RA BR BKN005 OVC008 02/02
A2990 RMK SLP126=
SPECI CYAY 271627Z AUTO 05012KT 5SM -RA BR OVC007 02/02 A2989 RMK
SLP123=
SPECI CYAY 271625Z AUTO 05011KT 7SM -RA OVC007 02/02 A2989 RMK
SLP123=
METAR CYAY 271600Z AUTO 05014KT 8SM -RA OVC009 02/02 A2989 RMK
SLP123=

TAF AMD CYAY 271725Z 2717/2802 05015G25KT 6SM -RA BR OVC010 TEMPO
2717/2724 1/2SM -RA FG OVC003
FM280000 04025G35KT 1/2SM -RA FG OVC003
RMK FCST BASED ON AUTO OBS. NXT FCST BY 272000Z=
Your time UTC time
Weather data provided by Environment Canada and NAV CANADA